createdAt,value
2022-08-21T00:01:40.048Z,89.22
2022-08-21T00:04:08.335Z,89.62
2022-08-21T00:06:36.184Z,90.04
2022-08-21T00:09:06.669Z,90.04
2022-08-21T00:11:37.823Z,90.36
2022-08-21T00:14:06.990Z,89.96
2022-08-21T00:16:33.625Z,89.88
2022-08-21T00:19:00.477Z,90.15
2022-08-21T00:21:27.156Z,90.53
2022-08-21T00:23:53.986Z,90.51
2022-08-21T00:26:20.593Z,91.33
2022-08-21T00:28:47.579Z,91.38
2022-08-21T00:31:14.123Z,91.77
2022-08-21T00:33:40.664Z,92.30
2022-08-21T00:36:07.558Z,92.76
2022-08-21T00:38:34.736Z,93.02
2022-08-21T00:41:29.827Z,93.46
2022-08-21T00:43:52.880Z,93.08
2022-08-21T00:46:19.631Z,94.85
2022-08-21T00:48:46.303Z,94.98
2022-08-21T00:51:26.724Z,94.94
2022-08-21T00:53:58.621Z,94.39
2022-08-21T00:56:26.789Z,94.12
2022-08-21T00:58:55.016Z,94.54
2022-08-21T01:01:22.530Z,95.03
2022-08-21T01:03:50.442Z,95.43
2022-08-21T01:06:17.386Z,94.91
2022-08-21T01:08:47.117Z,94.82
2022-08-21T01:11:18.090Z,94.79
2022-08-21T01:13:47.456Z,96.52
2022-08-21T01:16:17.844Z,96.24
2022-08-21T01:18:45.431Z,97.23
2022-08-21T01:21:16.447Z,96.73
2022-08-21T01:23:48.094Z,96.20
2022-08-21T01:26:17.221Z,95.69
2022-08-21T01:28:46.813Z,95.47
2022-08-21T01:31:16.258Z,95.43
2022-08-21T01:33:43.502Z,95.79
2022-08-21T01:36:10.470Z,95.77
2022-08-21T01:38:37.009Z,96.25
2022-08-21T01:41:03.603Z,95.62
2022-08-21T01:43:32.411Z,94.98
2022-08-21T01:46:05.898Z,94.54
2022-08-21T01:48:32.832Z,94.63
2022-08-21T01:51:00.300Z,95.71
2022-08-21T01:53:28.505Z,96.72
2022-08-21T01:56:00.254Z,97.13
2022-08-21T01:58:26.900Z,96.27
2022-08-21T02:00:53.537Z,95.60
2022-08-21T02:03:26.371Z,95.67
2022-08-21T02:06:03.384Z,94.99
2022-08-21T02:08:29.960Z,94.86
2022-08-21T02:10:56.498Z,94.49
2022-08-21T02:13:23.088Z,93.87
2022-08-21T02:15:49.748Z,93.31
2022-08-21T02:18:16.737Z,93.39
2022-08-21T02:20:48.231Z,93.42
2022-08-21T02:23:15.893Z,94.20
2022-08-21T02:25:43.207Z,94.41
2022-08-21T02:28:13.781Z,94.41
2022-08-21T02:30:48.231Z,94.94
2022-08-21T02:33:16.209Z,94.81
2022-08-21T02:35:44.587Z,94.82
2022-08-21T02:38:14.893Z,94.70
2022-08-21T02:40:48.185Z,94.17
2022-08-21T02:43:16.532Z,93.86
2022-08-21T02:45:44.226Z,93.49
2022-08-21T02:48:13.476Z,93.20
2022-08-21T02:50:52.259Z,92.73
2022-08-21T02:53:19.104Z,93.85
2022-08-21T02:55:48.278Z,93.86
2022-08-21T02:58:17.553Z,94.67
2022-08-21T03:00:44.959Z,94.56
2022-08-21T03:03:11.702Z,93.89
2022-08-21T03:05:38.714Z,93.02
2022-08-21T03:08:12.079Z,92.60
2022-08-21T03:10:40.924Z,92.47
2022-08-21T03:13:08.267Z,92.30
2022-08-21T03:15:35.001Z,92.27
2022-08-21T03:18:02.152Z,92.31
2022-08-21T03:20:29.800Z,93.15
2022-08-21T03:22:56.770Z,93.37
2022-08-21T03:25:39.990Z,93.29
2022-08-21T03:28:12.862Z,93.01
2022-08-21T03:30:48.092Z,93.15
2022-08-21T03:33:15.780Z,93.42
2022-08-21T03:35:49.925Z,93.27
2022-08-21T03:38:16.523Z,93.98
2022-08-21T03:40:44.239Z,93.88
2022-08-21T03:43:11.185Z,93.78
2022-08-21T03:45:38.856Z,93.70
2022-08-21T03:48:07.847Z,93.87
2022-08-21T03:50:41.243Z,94.21
2022-08-21T03:53:17.324Z,95.06
2022-08-21T03:55:49.830Z,95.08
2022-08-21T03:58:18.087Z,95.99
2022-08-21T04:00:49.937Z,96.85
2022-08-21T04:03:16.869Z,96.54
2022-08-21T04:05:46.212Z,96.79
2022-08-21T04:08:13.404Z,96.77
2022-08-21T04:10:41.118Z,97.05
2022-08-21T04:13:08.736Z,96.97
2022-08-21T04:15:36.022Z,97.42
2022-08-21T04:18:04.588Z,97.61
2022-08-21T04:20:31.182Z,97.35
2022-08-21T04:22:57.817Z,98.35
2022-08-21T04:25:26.511Z,98.45
2022-08-21T04:27:53.982Z,98.65
2022-08-21T04:30:20.898Z,99.23
2022-08-21T04:32:50.150Z,99.32
2022-08-21T04:35:19.776Z,98.90
2022-08-21T04:37:46.329Z,98.67
2022-08-21T04:40:15.363Z,98.67
2022-08-21T04:43:08.673Z,98.52
2022-08-21T04:45:38.293Z,98.98
2022-08-21T04:48:13.727Z,99.36
2022-08-21T04:50:45.954Z,99.59
2022-08-21T04:53:20.723Z,99.77
2022-08-21T04:55:48.090Z,100.00
2022-08-21T04:58:18.527Z,100.00
2022-08-21T05:00:46.910Z,100.00
2022-08-21T05:03:17.531Z,100.00
2022-08-21T05:05:44.652Z,100.00
2022-08-21T05:08:15.449Z,100.00
2022-08-21T05:10:43.444Z,100.00
2022-08-21T05:13:10.904Z,100.00
2022-08-21T05:15:38.432Z,100.00
2022-08-21T05:18:05.030Z,100.00
2022-08-21T05:20:31.568Z,100.00
2022-08-21T05:22:58.782Z,100.00
2022-08-21T05:25:26.147Z,100.00
2022-08-21T05:27:54.846Z,100.00
2022-08-21T05:30:21.669Z,100.00
2022-08-21T05:32:48.823Z,100.00
2022-08-21T05:35:16.134Z,100.00
2022-08-21T05:37:42.686Z,100.00
2022-08-21T05:40:22.777Z,100.00
2022-08-21T05:42:54.594Z,100.00
2022-08-21T05:45:41.718Z,100.00
2022-08-21T05:48:11.693Z,100.00
2022-08-21T05:50:39.885Z,100.00
2022-08-21T05:53:08.004Z,100.00
2022-08-21T05:55:34.778Z,100.00
2022-08-21T05:58:01.717Z,100.00
2022-08-21T06:00:28.427Z,100.00
2022-08-21T06:02:55.184Z,100.00
2022-08-21T06:05:36.945Z,100.00
2022-08-21T06:08:04.925Z,100.00
2022-08-21T06:10:32.222Z,100.00
2022-08-21T06:12:59.020Z,100.00
2022-08-21T06:15:25.716Z,100.00
2022-08-21T06:17:54.342Z,100.00
2022-08-21T06:20:21.096Z,100.00
2022-08-21T06:22:47.903Z,100.00
2022-08-21T06:25:14.614Z,100.00
2022-08-21T06:27:41.181Z,100.00
2022-08-21T06:30:08.451Z,100.00
2022-08-21T06:32:35.715Z,100.00
2022-08-21T06:35:02.260Z,100.00
2022-08-21T06:37:29.073Z,100.00
2022-08-21T06:39:55.704Z,100.00
2022-08-21T06:42:22.406Z,100.00
2022-08-21T06:44:54.786Z,100.00
2022-08-21T06:47:21.294Z,100.00
2022-08-21T06:49:47.899Z,100.00
2022-08-21T06:52:15.228Z,100.00
2022-08-21T06:54:42.504Z,100.00
2022-08-21T06:57:09.131Z,100.00
2022-08-21T06:59:35.997Z,100.00
2022-08-21T07:02:02.763Z,100.00
2022-08-21T07:04:29.330Z,100.00
2022-08-21T07:06:55.943Z,100.00
2022-08-21T07:09:24.842Z,100.00
2022-08-21T07:11:54.674Z,100.00
2022-08-21T07:14:21.784Z,100.00
2022-08-21T07:16:49.571Z,100.00
2022-08-21T07:19:16.149Z,100.00
2022-08-21T07:21:42.744Z,100.00
2022-08-21T07:24:09.963Z,100.00
2022-08-21T07:26:36.488Z,100.00
2022-08-21T07:29:03.777Z,100.00
2022-08-21T07:31:30.451Z,100.00
2022-08-21T07:33:57.030Z,99.93
2022-08-21T07:36:23.688Z,99.07
2022-08-21T07:38:52.766Z,98.78
2022-08-21T07:41:23.531Z,98.89
2022-08-21T07:43:52.798Z,98.59
2022-08-21T07:46:20.629Z,98.27
2022-08-21T07:48:47.526Z,98.18
2022-08-21T07:51:16.378Z,97.78
2022-08-21T07:53:42.853Z,97.56
2022-08-21T07:56:12.009Z,97.35
2022-08-21T07:58:38.818Z,97.35
2022-08-21T08:01:07.432Z,97.41
2022-08-21T08:03:34.320Z,97.17
2022-08-21T08:06:00.935Z,97.06
2022-08-21T08:08:28.566Z,96.94
2022-08-21T08:10:58.156Z,96.51
2022-08-21T08:13:25.502Z,96.74
2022-08-21T08:15:52.371Z,96.65
2022-08-21T08:18:19.132Z,96.11
2022-08-21T08:20:45.917Z,95.99
2022-08-21T08:23:13.874Z,96.35
2022-08-21T08:25:40.534Z,96.32
2022-08-21T08:28:16.955Z,96.58
2022-08-21T08:30:45.630Z,95.90
2022-08-21T08:33:12.557Z,96.21
2022-08-21T08:35:39.750Z,95.57
2022-08-21T08:38:06.749Z,94.92
2022-08-21T08:40:52.842Z,95.29
2022-08-21T08:43:20.170Z,94.91
2022-08-21T08:45:54.469Z,94.23
2022-08-21T08:48:53.039Z,94.07
2022-08-21T08:51:46.577Z,92.91
2022-08-21T08:54:18.997Z,93.69
2022-08-21T08:56:46.224Z,93.71
2022-08-21T08:59:19.014Z,92.69
2022-08-21T09:01:45.969Z,93.07
2022-08-21T09:04:14.550Z,92.53
2022-08-21T09:07:10.178Z,92.29
2022-08-21T09:09:39.648Z,91.57
2022-08-21T09:12:26.183Z,91.09
2022-08-21T09:15:23.043Z,91.39
2022-08-21T09:18:02.138Z,90.86
2022-08-21T09:20:49.400Z,90.29
2022-08-21T09:23:32.283Z,89.41
2022-08-21T09:26:07.597Z,89.76
2022-08-21T09:28:37.745Z,89.81
2022-08-21T09:31:12.792Z,89.66
2022-08-21T09:33:39.361Z,89.59
2022-08-21T09:36:06.172Z,89.25
2022-08-21T09:38:37.696Z,89.75
2022-08-21T09:41:09.890Z,89.16
2022-08-21T09:43:37.948Z,89.08
2022-08-21T09:46:13.630Z,89.52
2022-08-21T09:48:46.834Z,88.94
2022-08-21T09:51:18.525Z,88.55
2022-08-21T09:53:50.128Z,88.88
2022-08-21T09:56:47.202Z,89.07
2022-08-21T09:59:21.122Z,88.05
2022-08-21T10:01:54.799Z,87.72
2022-08-21T10:04:24.719Z,87.67
2022-08-21T10:06:51.388Z,87.86
2022-08-21T10:09:21.799Z,87.76
2022-08-21T10:11:57.363Z,87.90
2022-08-21T10:14:47.919Z,87.61
2022-08-21T10:17:29.473Z,87.25
2022-08-21T10:20:12.058Z,86.95
2022-08-21T10:22:57.647Z,86.84
2022-08-21T10:25:31.274Z,86.93
2022-08-21T10:28:45.100Z,87.09
2022-08-21T10:31:28.495Z,87.31
2022-08-21T10:34:19.422Z,87.09
2022-08-21T10:37:10.721Z,87.25
2022-08-21T10:40:16.738Z,87.11
2022-08-21T10:42:49.485Z,87.13
2022-08-21T10:45:48.681Z,87.47
2022-08-21T10:48:35.454Z,87.15
2022-08-21T10:51:40.596Z,87.30
2022-08-21T10:54:39.102Z,87.54
2022-08-21T10:57:31.980Z,87.69
2022-08-21T11:00:14.130Z,87.84
2022-08-21T11:02:43.388Z,88.10
2022-08-21T11:05:18.353Z,88.04
2022-08-21T11:07:52.652Z,87.55
2022-08-21T11:10:25.999Z,87.87
2022-08-21T11:13:00.097Z,88.66
2022-08-21T11:15:35.900Z,88.36
2022-08-21T11:18:24.346Z,88.22
2022-08-21T11:21:02.320Z,87.46
2022-08-21T11:23:58.503Z,88.31
2022-08-21T11:26:39.225Z,88.11
2022-08-21T11:29:17.560Z,87.80
2022-08-21T11:31:56.367Z,87.62
2022-08-21T11:34:31.541Z,87.41
2022-08-21T11:37:21.108Z,87.98
2022-08-21T11:40:09.936Z,87.96
2022-08-21T11:42:52.296Z,87.86
2022-08-21T11:45:46.479Z,87.88
2022-08-21T11:48:24.455Z,87.54
2022-08-21T11:50:52.691Z,87.36
2022-08-21T11:53:27.157Z,87.54
2022-08-21T11:55:58.086Z,87.34
2022-08-21T11:58:47.730Z,87.21
2022-08-21T12:01:20.822Z,87.19
2022-08-21T12:03:57.946Z,87.33
2022-08-21T12:06:34.146Z,87.29
2022-08-21T12:09:08.702Z,87.62
2022-08-21T12:11:51.001Z,87.58
2022-08-21T12:14:20.326Z,87.67
2022-08-21T12:16:50.409Z,87.52
2022-08-21T12:19:25.890Z,87.54
2022-08-21T12:21:58.244Z,87.49
2022-08-21T12:24:27.871Z,87.55
2022-08-21T12:27:14.263Z,87.56
2022-08-21T12:29:48.156Z,87.54
2022-08-21T12:32:14.653Z,87.44
2022-08-21T12:34:49.437Z,87.69
2022-08-21T12:37:23.521Z,87.44
2022-08-21T12:39:53.422Z,86.95
2022-08-21T12:42:24.615Z,87.12
2022-08-21T12:44:56.224Z,87.13
2022-08-21T12:47:32.844Z,86.75
2022-08-21T12:50:14.014Z,86.99
2022-08-21T12:52:57.032Z,87.06
2022-08-21T12:55:32.844Z,87.19
2022-08-21T12:57:59.936Z,87.62
2022-08-21T13:00:30.476Z,87.24
2022-08-21T13:02:58.326Z,86.87
2022-08-21T13:05:34.507Z,86.99
2022-08-21T13:08:05.790Z,87.19
2022-08-21T13:10:35.007Z,87.68
2022-08-21T13:13:12.739Z,87.62
2022-08-21T13:15:41.990Z,87.77
2022-08-21T13:18:28.576Z,87.73
2022-08-21T13:21:12.098Z,87.99
2022-08-21T13:23:38.844Z,87.90
2022-08-21T13:26:18.387Z,88.05
2022-08-21T13:28:48.531Z,87.96
2022-08-21T13:31:23.164Z,88.34
2022-08-21T13:33:51.418Z,88.39
2022-08-21T13:36:25.246Z,88.39
2022-08-21T13:38:53.786Z,88.57
2022-08-21T13:41:26.826Z,88.74
2022-08-21T13:44:18.432Z,88.99
2022-08-21T13:46:48.926Z,89.39
2022-08-21T13:49:19.548Z,89.60
2022-08-21T13:51:47.724Z,90.10
2022-08-21T13:54:21.376Z,89.99
2022-08-21T13:56:48.172Z,89.91
2022-08-21T13:59:27.288Z,89.76
2022-08-21T14:02:00.035Z,90.63
2022-08-21T14:04:57.691Z,91.24
2022-08-21T14:07:37.924Z,91.26
2022-08-21T14:10:12.619Z,91.35
2022-08-21T14:12:44.406Z,91.28
2022-08-21T14:15:15.470Z,91.55
2022-08-21T14:17:43.325Z,91.51
2022-08-21T14:20:13.207Z,91.51
2022-08-21T14:22:42.118Z,91.76
2022-08-21T14:25:11.776Z,92.13
2022-08-21T14:27:45.688Z,92.40
2022-08-21T14:30:27.044Z,92.41
2022-08-21T14:32:54.240Z,92.70
2022-08-21T14:35:23.799Z,92.99
2022-08-21T14:37:51.538Z,93.11
2022-08-21T14:40:19.743Z,93.27
2022-08-21T14:42:47.543Z,92.95
2022-08-21T14:45:24.408Z,93.08
2022-08-21T14:47:53.937Z,93.21
2022-08-21T14:50:20.800Z,93.10
2022-08-21T14:52:47.409Z,93.18
2022-08-21T14:55:15.338Z,93.24
2022-08-21T14:57:45.664Z,93.93
2022-08-21T15:00:14.766Z,94.81
2022-08-21T15:02:41.294Z,95.48
2022-08-21T15:05:08.067Z,96.29
2022-08-21T15:07:34.600Z,97.61
2022-08-21T15:10:01.194Z,96.99
2022-08-21T15:12:28.221Z,96.30
2022-08-21T15:14:54.990Z,96.38
2022-08-21T15:17:21.609Z,96.90
2022-08-21T15:19:48.312Z,96.49
2022-08-21T15:22:18.556Z,96.12
2022-08-21T15:24:54.130Z,95.66
2022-08-21T15:27:20.766Z,95.25
2022-08-21T15:29:47.530Z,94.99
2022-08-21T15:32:23.991Z,94.48
2022-08-21T15:34:52.192Z,94.58
2022-08-21T15:37:19.759Z,94.98
2022-08-21T15:39:51.088Z,95.38
2022-08-21T15:42:20.714Z,95.55
2022-08-21T15:44:48.693Z,96.05
2022-08-21T15:47:26.229Z,95.83
2022-08-21T15:49:52.849Z,95.74
2022-08-21T15:52:22.163Z,95.41
2022-08-21T15:54:49.251Z,95.05
2022-08-21T15:57:21.137Z,94.60
2022-08-21T15:59:54.496Z,94.51
2022-08-21T16:02:28.762Z,94.44
2022-08-21T16:04:55.494Z,93.94
2022-08-21T16:07:22.070Z,93.38
2022-08-21T16:09:48.606Z,93.22
2022-08-21T16:12:23.543Z,92.61
2022-08-21T16:14:51.951Z,92.76
2022-08-21T16:17:19.232Z,92.84
2022-08-21T16:19:46.410Z,93.43
2022-08-21T16:22:12.959Z,93.67
2022-08-21T16:24:39.512Z,93.82
2022-08-21T16:27:08.003Z,93.64
2022-08-21T16:29:37.425Z,93.08
2022-08-21T16:32:05.868Z,92.61
2022-08-21T16:34:32.646Z,92.71
2022-08-21T16:36:59.270Z,92.94
2022-08-21T16:39:26.050Z,93.25
2022-08-21T16:41:52.703Z,93.35
2022-08-21T16:44:21.874Z,93.01
2022-08-21T16:46:48.991Z,93.28
2022-08-21T16:49:15.649Z,93.08
2022-08-21T16:51:43.433Z,92.98
2022-08-21T16:54:10.788Z,92.93
2022-08-21T16:56:40.043Z,92.38
2022-08-21T16:59:07.696Z,91.43
2022-08-21T17:01:36.576Z,90.62
2022-08-21T17:04:03.710Z,90.73
2022-08-21T17:06:31.285Z,90.32
2022-08-21T17:08:59.315Z,90.60
2022-08-21T17:11:37.280Z,90.91
2022-08-21T17:14:15.104Z,90.88
2022-08-21T17:16:46.081Z,90.83
2022-08-21T17:19:13.437Z,90.75
2022-08-21T17:21:40.146Z,91.08
2022-08-21T17:24:06.727Z,91.46
2022-08-21T17:26:33.613Z,91.45
2022-08-21T17:29:00.711Z,91.74
2022-08-21T17:31:28.004Z,91.86
2022-08-21T17:33:54.660Z,92.32
2022-08-21T17:36:29.491Z,92.26
2022-08-21T17:38:57.203Z,92.20
2022-08-21T17:41:24.162Z,93.00
2022-08-21T17:43:51.657Z,93.67
2022-08-21T17:46:24.810Z,93.84
2022-08-21T17:48:51.535Z,93.84
2022-08-21T17:51:18.541Z,93.95
2022-08-21T17:53:45.395Z,93.89
2022-08-21T17:56:15.161Z,94.14
2022-08-21T17:58:49.565Z,94.11
2022-08-21T18:01:17.469Z,94.09
2022-08-21T18:03:47.115Z,94.30
2022-08-21T18:06:17.427Z,93.97
2022-08-21T18:08:44.902Z,94.22
2022-08-21T18:11:11.657Z,94.16
2022-08-21T18:13:51.980Z,94.21
2022-08-21T18:16:19.579Z,94.40
2022-08-21T18:18:49.099Z,95.10
2022-08-21T18:21:15.839Z,95.15
2022-08-21T18:23:44.320Z,95.29
2022-08-21T18:26:14.693Z,95.31
2022-08-21T18:28:42.284Z,95.12
2022-08-21T18:31:11.781Z,95.01
2022-08-21T18:33:43.723Z,95.06
2022-08-21T18:36:25.354Z,95.29
2022-08-21T18:38:52.819Z,95.30
2022-08-21T18:41:19.446Z,95.36
2022-08-21T18:43:46.164Z,95.74
2022-08-21T18:46:12.834Z,96.50
2022-08-21T18:48:40.484Z,97.01
2022-08-21T18:51:07.107Z,96.93
2022-08-21T18:53:33.821Z,97.05
2022-08-21T18:56:05.448Z,97.75
2022-08-21T18:58:33.309Z,97.98
2022-08-21T19:01:00.088Z,98.05
2022-08-21T19:03:26.894Z,97.97
2022-08-21T19:05:54.836Z,98.10
2022-08-21T19:08:23.840Z,97.96
2022-08-21T19:10:55.378Z,97.10
2022-08-21T19:13:22.912Z,97.79
2022-08-21T19:15:53.032Z,98.62
2022-08-21T19:18:27.870Z,98.69
2022-08-21T19:20:55.437Z,98.62
2022-08-21T19:23:29.323Z,98.87
2022-08-21T19:26:12.132Z,98.71
2022-08-21T19:28:45.967Z,99.66
2022-08-21T19:31:25.250Z,100.00
2022-08-21T19:34:01.489Z,99.95
2022-08-21T19:36:29.057Z,100.00
2022-08-21T19:38:55.771Z,100.00
2022-08-21T19:41:25.158Z,100.00
2022-08-21T19:43:54.669Z,100.00
2022-08-21T19:46:28.514Z,100.00
2022-08-21T19:48:55.830Z,100.00
2022-08-21T19:51:23.317Z,100.00
2022-08-21T19:53:56.916Z,100.00
2022-08-21T19:56:26.152Z,100.00
2022-08-21T19:58:52.817Z,100.00
2022-08-21T20:01:22.071Z,100.00
2022-08-21T20:03:53.708Z,100.00
2022-08-21T20:06:22.091Z,100.00
2022-08-21T20:08:51.494Z,100.00
2022-08-21T20:11:26.621Z,100.00
2022-08-21T20:13:54.340Z,100.00
2022-08-21T20:16:21.626Z,100.00
2022-08-21T20:18:49.025Z,100.00
2022-08-21T20:21:18.660Z,100.00
2022-08-21T20:23:48.835Z,100.00
2022-08-21T20:26:16.595Z,100.00
2022-08-21T20:28:43.612Z,100.00
2022-08-21T20:31:10.665Z,100.00
2022-08-21T20:33:37.985Z,100.00
2022-08-21T20:36:04.932Z,100.00
2022-08-21T20:38:31.798Z,100.00
2022-08-21T20:40:59.504Z,100.00
2022-08-21T20:43:26.790Z,100.00
2022-08-21T20:45:55.284Z,100.00
2022-08-21T20:48:49.319Z,100.00
2022-08-21T20:51:35.952Z,99.83
2022-08-21T20:54:14.838Z,99.93
2022-08-21T20:57:00.002Z,100.00
2022-08-21T20:59:32.946Z,99.86
2022-08-21T21:02:15.951Z,99.44
2022-08-21T21:04:47.379Z,99.26
2022-08-21T21:07:21.387Z,99.60
2022-08-21T21:09:53.779Z,99.63
2022-08-21T21:12:28.163Z,99.46
2022-08-21T21:15:00.413Z,100.00
2022-08-21T21:17:47.606Z,99.96
2022-08-21T21:20:21.461Z,99.36
2022-08-21T21:22:57.593Z,98.88
2022-08-21T21:25:40.110Z,98.97
2022-08-21T21:28:13.013Z,98.88
2022-08-21T21:30:46.507Z,98.79
2022-08-21T21:33:16.486Z,98.87
2022-08-21T21:35:51.466Z,98.80
2022-08-21T21:38:51.494Z,98.40
2022-08-21T21:41:47.064Z,98.39
2022-08-21T21:44:35.410Z,98.25
2022-08-21T21:47:13.553Z,98.14
2022-08-21T21:49:50.214Z,98.22
2022-08-21T21:52:38.203Z,98.12
2022-08-21T21:55:42.889Z,98.30
2022-08-21T21:58:57.033Z,98.43
2022-08-21T22:01:34.252Z,98.84
2022-08-21T22:04:03.953Z,98.62
2022-08-21T22:06:55.881Z,98.31
2022-08-21T22:09:37.710Z,98.69
2022-08-21T22:12:29.912Z,98.84
2022-08-21T22:14:57.356Z,98.98
2022-08-21T22:17:41.124Z,99.16
2022-08-21T22:20:15.235Z,99.39
2022-08-21T22:23:01.089Z,99.46
2022-08-21T22:25:33.341Z,99.44
2022-08-21T22:28:15.859Z,100.00
2022-08-21T22:31:14.719Z,99.80
2022-08-21T22:34:05.386Z,99.30
2022-08-21T22:36:38.200Z,99.38
2022-08-21T22:39:08.363Z,99.11
2022-08-21T22:41:41.221Z,98.95
2022-08-21T22:44:18.195Z,98.70
2022-08-21T22:46:56.135Z,99.01
2022-08-21T22:49:34.130Z,98.77
2022-08-21T22:52:31.859Z,98.49
2022-08-21T22:55:04.231Z,98.43
2022-08-21T22:57:34.316Z,98.37
2022-08-21T23:00:11.011Z,98.49
2022-08-21T23:02:58.614Z,98.67
2022-08-21T23:05:36.566Z,98.63
2022-08-21T23:08:24.177Z,98.48
2022-08-21T23:10:57.449Z,98.56
2022-08-21T23:13:24.024Z,98.93
2022-08-21T23:16:05.747Z,98.76
2022-08-21T23:18:42.859Z,98.65
2022-08-21T23:21:15.529Z,98.85
2022-08-21T23:24:02.587Z,98.25
2022-08-21T23:26:46.953Z,98.39
2022-08-21T23:29:47.699Z,98.41
2022-08-21T23:32:39.188Z,98.40
2022-08-21T23:35:51.903Z,98.68
2022-08-21T23:38:50.899Z,99.21
2022-08-21T23:41:42.743Z,99.23
2022-08-21T23:44:25.672Z,99.09
2022-08-21T23:47:30.028Z,99.02
2022-08-21T23:53:36.187Z,98.81
2022-08-21T23:56:14.242Z,99.83
2022-08-21T23:59:34.911Z,99.95
